createdAt,value
2022-12-07T00:00:52.565Z,99.99
2022-12-07T00:01:52.641Z,99.99
2022-12-07T00:02:52.628Z,99.99
2022-12-07T00:03:52.666Z,99.99
2022-12-07T00:04:52.542Z,99.99
2022-12-07T00:05:52.533Z,99.99
2022-12-07T00:06:52.517Z,99.99
2022-12-07T00:07:52.583Z,99.99
2022-12-07T00:08:52.485Z,99.99
2022-12-07T00:09:52.493Z,99.99
2022-12-07T00:10:52.455Z,99.99
2022-12-07T00:11:52.468Z,99.99
2022-12-07T00:12:52.454Z,99.99
2022-12-07T00:13:52.445Z,99.99
2022-12-07T00:14:52.425Z,99.99
2022-12-07T00:15:52.413Z,99.99
2022-12-07T00:16:52.470Z,99.99
2022-12-07T00:17:52.410Z,99.99
2022-12-07T00:18:52.385Z,99.99
2022-12-07T00:19:52.375Z,99.99
2022-12-07T00:20:52.346Z,99.99
2022-12-07T00:21:52.349Z,99.99
2022-12-07T00:22:52.323Z,99.99
2022-12-07T00:23:52.342Z,99.99
2022-12-07T00:24:52.321Z,99.99
2022-12-07T00:25:52.301Z,99.99
2022-12-07T00:26:52.286Z,99.99
2022-12-07T00:27:52.278Z,99.99
2022-12-07T00:28:52.250Z,99.99
2022-12-07T00:29:52.274Z,99.99
2022-12-07T00:30:52.243Z,99.99
2022-12-07T00:31:52.314Z,99.99
2022-12-07T00:32:52.214Z,99.99
2022-12-07T00:33:52.215Z,99.99
2022-12-07T00:34:52.194Z,99.99
2022-12-07T00:35:52.183Z,99.99
2022-12-07T00:36:52.170Z,99.99
2022-12-07T00:37:52.182Z,99.99
2022-12-07T00:38:52.154Z,99.99
2022-12-07T00:39:52.150Z,99.99
2022-12-07T00:40:52.198Z,99.99
2022-12-07T00:41:52.123Z,99.99
2022-12-07T00:42:52.102Z,99.99
2022-12-07T00:43:52.122Z,99.99
2022-12-07T00:44:52.100Z,99.99
2022-12-07T00:45:52.118Z,99.99
2022-12-07T00:46:52.062Z,99.99
2022-12-07T00:47:52.049Z,99.99
2022-12-07T00:48:52.051Z,99.99
2022-12-07T00:49:52.030Z,99.99
2022-12-07T00:50:52.045Z,99.99
2022-12-07T00:51:52.020Z,99.99
2022-12-07T00:52:51.998Z,99.99
2022-12-07T00:53:51.987Z,99.99
2022-12-07T00:54:51.982Z,99.99
2022-12-07T00:55:51.970Z,99.99
2022-12-07T00:56:51.962Z,99.99
2022-12-07T00:57:51.942Z,99.99
2022-12-07T00:58:51.942Z,99.99
2022-12-07T00:59:51.930Z,99.99
2022-12-07T01:00:51.905Z,99.99
2022-12-07T01:01:51.962Z,99.99
2022-12-07T01:02:51.916Z,99.99
2022-12-07T01:03:51.890Z,99.99
2022-12-07T01:04:51.851Z,99.99
2022-12-07T01:05:51.856Z,99.99
2022-12-07T01:06:51.832Z,99.99
2022-12-07T01:07:51.914Z,99.99
2022-12-07T01:08:51.818Z,99.99
2022-12-07T01:09:51.798Z,99.99
2022-12-07T01:10:51.811Z,99.99
2022-12-07T01:11:51.771Z,99.99
2022-12-07T01:12:51.768Z,99.99
2022-12-07T01:13:51.758Z,99.99
2022-12-07T01:14:51.742Z,99.99
2022-12-07T01:15:51.745Z,99.99
2022-12-07T01:16:51.780Z,99.99
2022-12-07T01:17:51.710Z,99.99
2022-12-07T01:18:51.680Z,99.99
2022-12-07T01:19:51.698Z,99.99
2022-12-07T01:20:51.723Z,99.99
2022-12-07T01:21:51.659Z,99.99
2022-12-07T01:22:51.651Z,99.99
2022-12-07T01:23:51.651Z,99.99
2022-12-07T01:24:51.635Z,99.99
2022-12-07T01:25:51.619Z,99.99
2022-12-07T01:26:51.603Z,99.99
2022-12-07T01:27:51.605Z,99.99
2022-12-07T01:28:51.598Z,99.99
2022-12-07T01:29:51.592Z,99.99
2022-12-07T01:30:51.628Z,99.99
2022-12-07T01:31:51.560Z,99.99
2022-12-07T01:32:51.539Z,99.99
2022-12-07T01:33:51.551Z,99.99
2022-12-07T01:34:51.512Z,99.99
2022-12-07T01:35:51.512Z,99.99
2022-12-07T01:36:51.711Z,99.99
2022-12-07T01:37:51.488Z,99.99
2022-12-07T01:38:51.472Z,99.99
2022-12-07T01:39:51.459Z,99.99
2022-12-07T01:40:51.454Z,99.99
2022-12-07T01:41:51.440Z,99.99
2022-12-07T01:42:51.433Z,99.99
2022-12-07T01:43:51.448Z,99.99
2022-12-07T01:44:51.400Z,99.99
2022-12-07T01:45:51.415Z,99.99
2022-12-07T01:46:51.380Z,99.99
2022-12-07T01:47:51.368Z,99.99
2022-12-07T01:48:51.365Z,99.99
2022-12-07T01:49:51.361Z,99.99
2022-12-07T01:50:51.341Z,99.99
2022-12-07T01:51:51.323Z,99.99
2022-12-07T01:52:51.322Z,99.99
2022-12-07T01:53:51.300Z,99.99
2022-12-07T01:54:51.297Z,99.99
2022-12-07T01:55:51.291Z,99.99
2022-12-07T01:56:51.540Z,99.99
2022-12-07T01:57:51.252Z,99.99
2022-12-07T01:58:51.241Z,99.99
2022-12-07T01:59:51.249Z,99.99
2022-12-07T02:00:51.232Z,99.99
2022-12-07T02:01:51.249Z,99.99
2022-12-07T02:02:51.260Z,99.99
2022-12-07T02:03:51.221Z,99.99
2022-12-07T02:04:51.169Z,99.99
2022-12-07T02:05:51.168Z,99.99
2022-12-07T02:06:51.182Z,99.99
2022-12-07T02:07:51.204Z,99.99
2022-12-07T02:08:51.121Z,99.99
2022-12-07T02:09:51.120Z,99.99
2022-12-07T02:10:51.141Z,99.99
2022-12-07T02:11:51.129Z,99.99
2022-12-07T02:12:51.102Z,99.99
2022-12-07T02:13:51.063Z,99.99
2022-12-07T02:14:51.062Z,99.99
2022-12-07T02:15:51.119Z,99.99
2022-12-07T02:16:51.050Z,99.99
2022-12-07T02:17:51.058Z,99.99
2022-12-07T02:18:51.023Z,99.99
2022-12-07T02:19:51.021Z,99.99
2022-12-07T02:20:51.010Z,99.99
2022-12-07T02:21:50.977Z,99.99
2022-12-07T02:22:51.003Z,99.99
2022-12-07T02:23:50.957Z,99.99
2022-12-07T02:24:50.949Z,99.99
2022-12-07T02:25:50.958Z,99.99
2022-12-07T02:26:50.938Z,99.99
2022-12-07T02:27:50.937Z,99.99
2022-12-07T02:28:50.901Z,99.99
2022-12-07T02:29:50.909Z,99.99
2022-12-07T02:30:50.928Z,99.99
2022-12-07T02:31:50.857Z,99.99
2022-12-07T02:32:50.869Z,99.99
2022-12-07T02:33:50.873Z,99.99
2022-12-07T02:34:50.837Z,99.99
2022-12-07T02:35:50.817Z,99.99
2022-12-07T02:36:50.822Z,99.99
2022-12-07T02:37:50.782Z,99.99
2022-12-07T02:38:50.805Z,99.99
2022-12-07T02:39:50.777Z,99.99
2022-12-07T02:40:50.781Z,99.99
2022-12-07T02:41:50.758Z,99.99
2022-12-07T02:42:50.773Z,99.99
2022-12-07T02:43:50.742Z,99.99
2022-12-07T02:44:50.733Z,99.99
2022-12-07T02:45:51.286Z,99.99
2022-12-07T02:46:50.799Z,99.99
2022-12-07T02:47:50.678Z,99.99
2022-12-07T02:48:50.681Z,99.99
2022-12-07T02:49:50.688Z,99.99
2022-12-07T02:50:50.665Z,99.99
2022-12-07T02:51:50.638Z,99.99
2022-12-07T02:52:50.638Z,99.99
2022-12-07T02:53:50.619Z,99.99
2022-12-07T02:54:50.620Z,99.99
2022-12-07T02:55:50.598Z,99.99
2022-12-07T02:56:50.601Z,99.99
2022-12-07T02:57:50.581Z,99.99
2022-12-07T02:58:50.577Z,99.99
2022-12-07T02:59:50.557Z,99.99
2022-12-07T03:00:50.561Z,99.99
2022-12-07T03:01:50.565Z,99.99
2022-12-07T03:02:50.545Z,99.99
2022-12-07T03:03:50.511Z,99.99
2022-12-07T03:04:50.510Z,99.99
2022-12-07T03:05:51.082Z,99.99
2022-12-07T03:06:50.469Z,99.99
2022-12-07T03:07:50.478Z,99.99
2022-12-07T03:08:50.469Z,99.99
2022-12-07T03:09:50.438Z,99.99
2022-12-07T03:10:50.438Z,99.99
2022-12-07T03:11:50.417Z,99.99
2022-12-07T03:12:50.402Z,99.99
2022-12-07T03:13:50.397Z,99.99
2022-12-07T03:14:50.386Z,99.99
2022-12-07T03:15:50.405Z,99.99
2022-12-07T03:16:50.370Z,99.99
2022-12-07T03:17:50.347Z,99.99
2022-12-07T03:18:50.362Z,99.99
2022-12-07T03:19:50.344Z,99.99
2022-12-07T03:20:50.331Z,99.99
2022-12-07T03:21:50.298Z,99.99
2022-12-07T03:22:50.349Z,99.99
2022-12-07T03:23:50.266Z,99.99
2022-12-07T03:24:50.278Z,99.99
2022-12-07T03:25:50.895Z,99.99
2022-12-07T03:26:50.257Z,99.99
2022-12-07T03:27:50.246Z,99.99
2022-12-07T03:28:50.263Z,99.99
2022-12-07T03:29:50.227Z,99.99
2022-12-07T03:30:50.312Z,99.99
2022-12-07T03:31:50.186Z,99.99
2022-12-07T03:32:50.210Z,99.99
2022-12-07T03:33:50.190Z,99.99
2022-12-07T03:34:50.187Z,99.99
2022-12-07T03:35:50.146Z,99.99
2022-12-07T03:36:50.150Z,99.99
2022-12-07T03:37:50.106Z,99.99
2022-12-07T03:38:50.146Z,99.99
2022-12-07T03:39:50.106Z,99.99
2022-12-07T03:40:50.106Z,99.99
2022-12-07T03:41:50.092Z,99.99
2022-12-07T03:42:50.080Z,99.99
2022-12-07T03:43:50.086Z,99.99
2022-12-07T03:44:50.057Z,99.99
2022-12-07T03:45:50.034Z,99.99
2022-12-07T03:46:50.066Z,99.99
2022-12-07T03:47:50.006Z,99.99
2022-12-07T03:48:50.038Z,99.99
2022-12-07T03:49:50.023Z,99.99
2022-12-07T03:50:50.015Z,99.99
2022-12-07T03:51:49.983Z,99.99
2022-12-07T03:52:50.002Z,99.99
2022-12-07T03:53:50.003Z,99.99
2022-12-07T03:54:49.978Z,99.99
2022-12-07T03:55:49.914Z,99.99
2022-12-07T03:56:49.931Z,99.99
2022-12-07T03:57:49.908Z,99.99
2022-12-07T03:58:49.906Z,99.99
2022-12-07T03:59:49.874Z,99.99
2022-12-07T04:00:49.908Z,99.99
2022-12-07T04:01:49.957Z,99.99
2022-12-07T04:02:49.886Z,99.99
2022-12-07T04:03:49.849Z,99.99
2022-12-07T04:04:49.838Z,99.99
2022-12-07T04:05:49.826Z,99.99
2022-12-07T04:06:49.813Z,99.99
2022-12-07T04:07:49.858Z,99.99
2022-12-07T04:08:49.789Z,99.99
2022-12-07T04:09:49.775Z,99.99
2022-12-07T04:10:49.795Z,99.99
2022-12-07T04:11:49.759Z,99.99
2022-12-07T04:12:49.760Z,99.99
2022-12-07T04:13:49.735Z,99.99
2022-12-07T04:14:49.722Z,99.99
2022-12-07T04:15:49.728Z,99.99
2022-12-07T04:16:49.716Z,99.99
2022-12-07T04:17:49.686Z,99.99
2022-12-07T04:18:49.677Z,99.99
2022-12-07T04:19:49.672Z,99.99
2022-12-07T04:20:49.669Z,99.99
2022-12-07T04:21:49.646Z,99.99
2022-12-07T04:22:49.670Z,99.99
2022-12-07T04:23:49.627Z,99.99
2022-12-07T04:24:49.614Z,99.99
2022-12-07T04:25:49.602Z,99.99
2022-12-07T04:26:49.615Z,99.99
2022-12-07T04:27:49.576Z,99.99
2022-12-07T04:28:49.575Z,99.99
2022-12-07T04:29:49.563Z,99.99
2022-12-07T04:30:49.542Z,99.99
2022-12-07T04:31:49.649Z,99.99
2022-12-07T04:32:49.529Z,99.99
2022-12-07T04:33:49.517Z,99.99
2022-12-07T04:34:54.126Z,99.99
2022-12-07T04:35:50.475Z,99.99
2022-12-07T04:36:49.483Z,99.99
2022-12-07T04:37:49.475Z,99.99
2022-12-07T04:38:49.475Z,99.99
2022-12-07T04:39:49.443Z,99.99
2022-12-07T04:40:49.434Z,99.99
2022-12-07T04:41:49.424Z,99.99
2022-12-07T04:42:49.431Z,99.99
2022-12-07T04:43:49.393Z,99.99
2022-12-07T04:44:49.416Z,99.99
2022-12-07T04:45:49.375Z,99.99
2022-12-07T04:46:49.405Z,99.99
2022-12-07T04:47:49.369Z,99.99
2022-12-07T04:48:49.361Z,99.99
2022-12-07T04:49:49.342Z,99.99
2022-12-07T04:50:49.335Z,99.99
2022-12-07T04:51:49.304Z,99.99
2022-12-07T04:52:49.328Z,99.99
2022-12-07T04:53:49.288Z,99.99
2022-12-07T04:54:49.287Z,99.99
2022-12-07T04:55:49.265Z,99.99
2022-12-07T04:56:49.271Z,99.99
2022-12-07T04:57:49.274Z,99.99
2022-12-07T04:58:49.267Z,99.99
2022-12-07T04:59:49.213Z,99.99
2022-12-07T05:00:49.265Z,99.99
2022-12-07T05:01:49.236Z,99.99
2022-12-07T05:02:49.199Z,99.99
2022-12-07T05:03:49.192Z,99.99
2022-12-07T05:04:49.164Z,99.99
2022-12-07T05:05:49.148Z,99.99
2022-12-07T05:06:49.161Z,99.99
2022-12-07T05:07:49.200Z,99.99
2022-12-07T05:08:49.145Z,99.99
2022-12-07T05:09:49.117Z,99.99
2022-12-07T05:10:49.114Z,99.99
2022-12-07T05:11:49.083Z,99.99
2022-12-07T05:12:49.084Z,99.99
2022-12-07T05:13:49.076Z,99.99
2022-12-07T05:14:49.072Z,99.99
2022-12-07T05:15:49.179Z,99.99
2022-12-07T05:16:49.121Z,99.99
2022-12-07T05:17:49.029Z,99.99
2022-12-07T05:18:49.036Z,99.99
2022-12-07T05:19:49.004Z,99.99
2022-12-07T05:20:49.002Z,99.99
2022-12-07T05:21:49.000Z,99.99
2022-12-07T05:22:48.997Z,99.99
2022-12-07T05:23:48.954Z,99.99
2022-12-07T05:24:49.082Z,99.99
2022-12-07T05:25:48.932Z,99.99
2022-12-07T05:26:48.935Z,99.99
2022-12-07T05:27:48.944Z,99.99
2022-12-07T05:28:48.917Z,99.99
2022-12-07T05:29:48.911Z,99.99
2022-12-07T05:30:48.905Z,99.99
2022-12-07T05:31:48.983Z,99.99
2022-12-07T05:32:48.864Z,99.99
2022-12-07T05:33:48.838Z,99.99
2022-12-07T05:34:48.925Z,99.99
2022-12-07T05:35:48.815Z,99.99
2022-12-07T05:36:48.836Z,99.99
2022-12-07T05:37:48.801Z,99.99
2022-12-07T05:38:48.798Z,99.99
2022-12-07T05:39:48.773Z,99.99
2022-12-07T05:40:48.815Z,99.99
2022-12-07T05:41:48.945Z,99.99
2022-12-07T05:42:48.761Z,99.99
2022-12-07T05:43:48.734Z,99.99
2022-12-07T05:44:48.722Z,99.99
2022-12-07T05:45:48.824Z,99.99
2022-12-07T05:46:48.712Z,99.99
2022-12-07T05:47:48.694Z,99.99
2022-12-07T05:48:48.702Z,99.99
2022-12-07T05:49:48.681Z,99.99
2022-12-07T05:50:48.665Z,99.99
2022-12-07T05:51:48.660Z,99.99
2022-12-07T05:52:48.642Z,99.99
2022-12-07T05:53:48.626Z,99.99
2022-12-07T05:54:49.148Z,99.99
2022-12-07T05:55:48.619Z,99.99
2022-12-07T05:56:48.602Z,99.99
2022-12-07T05:57:48.634Z,99.99
2022-12-07T05:58:48.581Z,99.99
2022-12-07T05:59:48.552Z,99.99
2022-12-07T06:00:51.236Z,99.99
2022-12-07T06:01:48.649Z,99.99
2022-12-07T06:02:48.615Z,99.99
2022-12-07T06:03:48.512Z,99.99
2022-12-07T06:04:48.517Z,99.99
2022-12-07T06:05:48.534Z,99.99
2022-12-07T06:06:48.503Z,99.99
2022-12-07T06:07:48.499Z,99.99
2022-12-07T06:08:48.503Z,99.99
2022-12-07T06:09:48.563Z,99.99
2022-12-07T06:10:48.446Z,99.99
2022-12-07T06:11:48.425Z,99.99
2022-12-07T06:12:48.445Z,99.99
2022-12-07T06:13:48.401Z,99.99
2022-12-07T06:14:48.405Z,99.99
2022-12-07T06:15:48.372Z,99.99
2022-12-07T06:16:48.416Z,99.99
2022-12-07T06:17:48.372Z,99.99
2022-12-07T06:18:48.364Z,99.99
2022-12-07T06:19:48.344Z,99.99
2022-12-07T06:20:48.344Z,99.99
2022-12-07T06:21:48.314Z,99.99
2022-12-07T06:22:48.308Z,99.99
2022-12-07T06:23:48.313Z,99.99
2022-12-07T06:24:48.291Z,99.99
2022-12-07T06:25:48.264Z,99.99
2022-12-07T06:26:48.257Z,99.99
2022-12-07T06:27:48.280Z,99.99
2022-12-07T06:28:48.253Z,99.99
2022-12-07T06:29:48.222Z,99.99
2022-12-07T06:30:48.236Z,99.99
2022-12-07T06:31:48.266Z,99.99
2022-12-07T06:32:48.194Z,99.99
2022-12-07T06:33:48.221Z,99.99
2022-12-07T06:34:48.172Z,99.99
2022-12-07T06:35:48.182Z,99.99
2022-12-07T06:36:48.148Z,99.99
2022-12-07T06:37:48.339Z,99.99
2022-12-07T06:38:48.141Z,99.99
2022-12-07T06:39:48.153Z,99.99
2022-12-07T06:40:48.121Z,99.99
2022-12-07T06:41:48.132Z,99.99
2022-12-07T06:42:48.086Z,99.99
2022-12-07T06:43:52.700Z,99.99
2022-12-07T06:44:49.101Z,99.99
2022-12-07T06:45:48.106Z,99.99
2022-12-07T06:46:48.074Z,99.99
2022-12-07T06:47:48.049Z,99.99
2022-12-07T06:48:48.034Z,99.99
2022-12-07T06:49:48.035Z,99.99
2022-12-07T06:50:54.195Z,99.99
2022-12-07T06:51:48.997Z,99.99
2022-12-07T06:52:47.973Z,99.99
2022-12-07T06:53:47.981Z,99.99
2022-12-07T06:54:47.977Z,99.99
2022-12-07T06:55:47.940Z,99.99
2022-12-07T06:56:47.931Z,99.99
2022-12-07T06:57:47.921Z,99.99
2022-12-07T06:58:47.905Z,99.99
2022-12-07T06:59:47.937Z,99.99
2022-12-07T07:00:47.926Z,99.99
2022-12-07T07:01:47.926Z,99.99
2022-12-07T07:02:47.908Z,99.99
2022-12-07T07:03:47.869Z,99.99
2022-12-07T07:04:47.863Z,99.99
2022-12-07T07:05:47.842Z,99.99
2022-12-07T07:06:47.829Z,99.99
2022-12-07T07:08:20.367Z,99.99
2022-12-07T07:08:48.850Z,99.99
2022-12-07T07:09:47.789Z,99.99
2022-12-07T07:10:47.850Z,99.99
2022-12-07T07:11:47.773Z,99.99
2022-12-07T07:12:47.785Z,99.99
2022-12-07T07:13:47.741Z,99.99
2022-12-07T07:14:47.751Z,99.99
2022-12-07T07:15:47.761Z,99.99
2022-12-07T07:16:47.757Z,99.99
2022-12-07T07:17:47.702Z,99.99
2022-12-07T07:18:47.682Z,99.99
2022-12-07T07:19:47.680Z,99.99
2022-12-07T07:20:47.714Z,99.99
2022-12-07T07:21:47.670Z,99.99
2022-12-07T07:22:47.639Z,99.99
2022-12-07T07:23:47.638Z,99.99
2022-12-07T07:24:47.618Z,99.99
2022-12-07T07:25:47.619Z,99.99
2022-12-07T07:26:47.602Z,99.99
2022-12-07T07:27:47.591Z,99.99
2022-12-07T07:28:47.596Z,99.99
2022-12-07T07:29:47.558Z,99.99
2022-12-07T07:30:47.581Z,99.99
2022-12-07T07:31:47.570Z,99.99
2022-12-07T07:32:47.531Z,99.99
2022-12-07T07:33:47.551Z,99.99
2022-12-07T07:34:47.502Z,99.99
2022-12-07T07:35:47.512Z,99.99
2022-12-07T07:36:47.499Z,99.99
2022-12-07T07:37:47.483Z,99.99
2022-12-07T07:38:47.471Z,99.99
2022-12-07T07:39:47.458Z,99.99
2022-12-07T07:40:47.437Z,99.99
2022-12-07T07:41:47.451Z,99.99
2022-12-07T07:42:47.418Z,99.99
2022-12-07T07:43:47.800Z,99.99
2022-12-07T07:44:47.391Z,99.99
2022-12-07T07:45:47.485Z,99.99
2022-12-07T07:46:47.367Z,99.99
2022-12-07T07:47:47.379Z,99.99
2022-12-07T07:48:47.347Z,99.99
2022-12-07T07:49:48.390Z,99.99
2022-12-07T07:50:47.332Z,99.99
2022-12-07T07:51:47.328Z,99.99
2022-12-07T07:52:47.361Z,99.99
2022-12-07T07:53:47.288Z,99.99
2022-12-07T07:54:47.279Z,99.99
2022-12-07T07:55:47.291Z,99.99
2022-12-07T07:56:47.271Z,99.99
2022-12-07T07:57:52.862Z,99.99
2022-12-07T07:58:48.471Z,99.99
2022-12-07T07:59:47.240Z,99.99
2022-12-07T08:00:47.219Z,99.99
2022-12-07T08:01:47.256Z,99.99
2022-12-07T08:02:47.212Z,99.99
2022-12-07T08:03:47.241Z,99.99
2022-12-07T08:04:47.278Z,99.99
2022-12-07T08:05:47.189Z,99.99
2022-12-07T08:06:47.159Z,99.99
2022-12-07T08:07:47.178Z,99.99
2022-12-07T08:08:47.149Z,99.99
2022-12-07T08:09:47.140Z,99.99
2022-12-07T08:10:47.107Z,99.99
2022-12-07T08:11:47.107Z,99.99
2022-12-07T08:12:47.088Z,99.99
2022-12-07T08:13:47.091Z,99.99
2022-12-07T08:14:47.067Z,99.99
2022-12-07T08:15:47.143Z,99.99
2022-12-07T08:16:47.047Z,99.99
2022-12-07T08:17:47.040Z,99.99
2022-12-07T08:18:47.039Z,99.99
2022-12-07T08:19:47.027Z,99.99
2022-12-07T08:20:46.987Z,99.99
2022-12-07T08:21:47.018Z,99.99
2022-12-07T08:22:46.975Z,99.99
2022-12-07T08:23:47.347Z,99.99
2022-12-07T08:24:46.966Z,99.99
2022-12-07T08:25:46.947Z,99.99
2022-12-07T08:26:46.923Z,99.99
2022-12-07T08:27:46.930Z,99.99
2022-12-07T08:28:46.936Z,99.99
2022-12-07T08:29:46.894Z,99.99
2022-12-07T08:30:47.033Z,99.99
2022-12-07T08:31:46.889Z,99.99
2022-12-07T08:32:46.859Z,99.99
2022-12-07T08:33:46.888Z,99.99
2022-12-07T08:34:46.848Z,99.99
2022-12-07T08:35:46.838Z,99.99
2022-12-07T08:36:46.815Z,99.99
2022-12-07T08:37:46.816Z,99.99
2022-12-07T08:39:08.088Z,99.99
2022-12-07T08:39:47.814Z,99.99
2022-12-07T08:40:46.775Z,99.99
2022-12-07T08:41:46.776Z,99.99
2022-12-07T08:42:46.756Z,99.99
2022-12-07T08:43:46.768Z,99.99
2022-12-07T08:44:46.749Z,99.99
2022-12-07T08:45:46.736Z,99.99
2022-12-07T08:46:46.870Z,99.99
2022-12-07T08:47:46.730Z,99.99
2022-12-07T08:48:46.747Z,99.99
2022-12-07T08:49:46.699Z,99.99
2022-12-07T08:50:49.726Z,99.99
2022-12-07T08:51:46.825Z,99.99
2022-12-07T08:52:46.661Z,99.99
2022-12-07T08:53:46.634Z,99.99
2022-12-07T08:54:46.632Z,99.99
2022-12-07T08:55:46.624Z,99.99
2022-12-07T08:56:46.658Z,99.99
2022-12-07T08:57:46.610Z,99.99
2022-12-07T08:58:46.575Z,99.99
2022-12-07T08:59:46.607Z,99.99
2022-12-07T09:00:46.566Z,99.99
2022-12-07T09:01:46.585Z,99.99
2022-12-07T09:02:46.544Z,99.99
2022-12-07T09:03:46.536Z,99.99
2022-12-07T09:04:46.535Z,99.99
2022-12-07T09:05:46.559Z,99.99
2022-12-07T09:06:46.618Z,99.99
2022-12-07T09:07:46.530Z,99.99
2022-12-07T09:08:46.475Z,99.99
2022-12-07T09:09:46.475Z,99.99
2022-12-07T09:10:46.495Z,99.99
2022-12-07T09:11:46.461Z,99.99
2022-12-07T09:12:46.423Z,99.99
2022-12-07T09:13:46.415Z,99.99
2022-12-07T09:14:46.395Z,99.99
2022-12-07T09:15:46.469Z,99.99
2022-12-07T09:16:46.372Z,99.99
2022-12-07T09:17:46.383Z,99.99
2022-12-07T09:18:46.363Z,99.99
2022-12-07T09:19:46.368Z,99.99
2022-12-07T09:20:46.352Z,99.99
2022-12-07T09:21:46.347Z,99.99
2022-12-07T09:22:46.303Z,99.99
2022-12-07T09:23:46.339Z,99.99
2022-12-07T09:24:46.316Z,99.99
2022-12-07T09:25:46.319Z,99.99
2022-12-07T09:26:46.274Z,99.99
2022-12-07T09:27:46.277Z,99.99
2022-12-07T09:28:46.255Z,99.99
2022-12-07T09:29:46.264Z,99.99
2022-12-07T09:31:14.888Z,99.99
2022-12-07T09:31:47.249Z,99.99
2022-12-07T09:32:46.204Z,99.99
2022-12-07T09:33:46.203Z,99.99
2022-12-07T09:34:46.235Z,99.99
2022-12-07T09:35:46.174Z,99.99
2022-12-07T09:36:46.164Z,99.99
2022-12-07T09:37:46.164Z,99.99
2022-12-07T09:38:46.156Z,99.99
2022-12-07T09:40:01.863Z,99.99
2022-12-07T09:40:47.123Z,99.99
2022-12-07T09:41:46.123Z,99.99
2022-12-07T09:42:46.110Z,99.99
2022-12-07T09:43:46.083Z,99.99
2022-12-07T09:44:46.064Z,99.99
2022-12-07T09:45:48.648Z,99.99
2022-12-07T09:46:46.113Z,99.99
2022-12-07T09:47:46.046Z,99.99
2022-12-07T09:48:46.032Z,99.99
2022-12-07T09:49:46.012Z,99.99
2022-12-07T09:50:45.997Z,99.99
2022-12-07T09:51:46.003Z,99.99
2022-12-07T09:52:46.091Z,99.99
2022-12-07T09:53:46.007Z,99.99
2022-12-07T09:54:45.955Z,99.99
2022-12-07T09:55:45.939Z,99.99
2022-12-07T09:56:45.937Z,99.99
2022-12-07T09:57:45.931Z,99.99
2022-12-07T09:58:45.915Z,99.99
2022-12-07T09:59:45.932Z,99.99
2022-12-07T10:00:45.885Z,99.99
2022-12-07T10:01:45.994Z,99.99
2022-12-07T10:02:45.910Z,99.99
2022-12-07T10:03:45.999Z,99.99
2022-12-07T10:04:45.878Z,99.99
2022-12-07T10:05:45.831Z,99.99
2022-12-07T10:06:45.839Z,99.99
2022-12-07T10:07:45.869Z,99.99
2022-12-07T10:08:45.812Z,99.99
2022-12-07T10:09:45.785Z,99.99
2022-12-07T10:10:45.816Z,99.99
2022-12-07T10:11:45.792Z,99.99
2022-12-07T10:12:45.743Z,99.99
2022-12-07T10:13:45.747Z,99.99
2022-12-07T10:15:06.713Z,99.99
2022-12-07T10:15:46.756Z,99.99
2022-12-07T10:16:45.730Z,99.99
2022-12-07T10:17:45.699Z,99.99
2022-12-07T10:18:45.671Z,99.99
2022-12-07T10:19:45.672Z,99.99
2022-12-07T10:20:45.647Z,99.99
2022-12-07T10:21:45.652Z,99.99
2022-12-07T10:22:45.654Z,99.99
2022-12-07T10:23:45.632Z,99.99
2022-12-07T10:24:45.612Z,99.99
2022-12-07T10:25:45.600Z,99.99
2022-12-07T10:26:45.591Z,99.99
2022-12-07T10:27:45.580Z,99.99
2022-12-07T10:28:45.572Z,99.99
2022-12-07T10:29:45.560Z,99.99
2022-12-07T10:30:45.548Z,99.99
2022-12-07T10:31:45.599Z,99.99
2022-12-07T10:32:45.841Z,99.99
2022-12-07T10:33:45.508Z,99.99
2022-12-07T10:34:51.903Z,99.99
2022-12-07T10:35:46.510Z,99.99
2022-12-07T10:36:45.476Z,99.99
2022-12-07T10:37:45.460Z,99.99
2022-12-07T10:38:45.488Z,99.99
2022-12-07T10:39:45.448Z,99.99
2022-12-07T10:40:46.721Z,99.99
2022-12-07T10:41:45.432Z,99.99
2022-12-07T10:42:45.412Z,99.99
2022-12-07T10:43:45.412Z,99.99
2022-12-07T10:44:45.436Z,99.99
2022-12-07T10:46:02.584Z,99.99
2022-12-07T10:46:46.431Z,99.99
2022-12-07T10:47:45.357Z,99.99
2022-12-07T10:48:45.368Z,99.99
2022-12-07T10:49:45.323Z,99.99
2022-12-07T10:50:45.341Z,99.99
2022-12-07T10:51:45.309Z,99.99
2022-12-07T10:52:45.301Z,99.99
2022-12-07T10:53:45.288Z,99.99
2022-12-07T10:54:45.289Z,99.99
2022-12-07T10:55:45.280Z,99.99
2022-12-07T10:56:49.689Z,99.99
2022-12-07T10:57:46.249Z,99.99
2022-12-07T10:58:45.268Z,99.99
2022-12-07T10:59:45.210Z,99.99
2022-12-07T11:00:45.264Z,99.99
2022-12-07T11:01:45.238Z,99.99
2022-12-07T11:02:45.231Z,99.99
2022-12-07T11:03:45.168Z,99.99
2022-12-07T11:04:45.140Z,99.99
2022-12-07T11:05:45.168Z,99.99
2022-12-07T11:06:45.144Z,99.99
2022-12-07T11:07:45.170Z,99.99
2022-12-07T11:08:45.140Z,99.99
2022-12-07T11:10:07.971Z,99.99
2022-12-07T11:10:46.089Z,99.99
2022-12-07T11:11:45.084Z,99.99
2022-12-07T11:12:45.078Z,99.99
2022-12-07T11:13:45.042Z,99.99
2022-12-07T11:14:45.082Z,99.99
2022-12-07T11:15:45.038Z,99.99
2022-12-07T11:16:45.111Z,99.99
2022-12-07T11:17:45.017Z,99.99
2022-12-07T11:18:45.017Z,99.99
2022-12-07T11:19:44.981Z,99.99
2022-12-07T11:20:45.009Z,99.99
2022-12-07T11:21:44.985Z,99.99
2022-12-07T11:22:44.969Z,99.99
2022-12-07T11:23:44.970Z,99.99
2022-12-07T11:24:44.945Z,99.99
2022-12-07T11:25:44.909Z,99.99
2022-12-07T11:26:44.917Z,99.99
2022-12-07T11:27:44.889Z,99.99
2022-12-07T11:28:44.896Z,99.99
2022-12-07T11:29:44.877Z,99.99
2022-12-07T11:30:44.890Z,99.99
2022-12-07T11:31:44.888Z,99.99
2022-12-07T11:32:44.850Z,99.99
2022-12-07T11:33:44.817Z,99.99
2022-12-07T11:34:44.837Z,99.99
2022-12-07T11:35:44.798Z,99.99
2022-12-07T11:36:44.810Z,99.99
2022-12-07T11:37:44.791Z,99.99
2022-12-07T11:38:44.789Z,99.99
2022-12-07T11:39:44.769Z,99.99
2022-12-07T11:40:44.756Z,99.99
2022-12-07T11:41:44.737Z,99.99
2022-12-07T11:42:44.794Z,99.99
2022-12-07T11:43:44.737Z,99.99
2022-12-07T11:44:44.738Z,99.99
2022-12-07T11:45:44.689Z,99.99
2022-12-07T11:46:44.720Z,99.99
2022-12-07T11:47:44.674Z,99.99
2022-12-07T11:48:44.669Z,99.99
2022-12-07T11:49:44.651Z,99.99
2022-12-07T11:50:44.672Z,99.99
2022-12-07T11:51:44.637Z,99.99
2022-12-07T11:52:44.616Z,99.99
2022-12-07T11:53:44.629Z,99.99
2022-12-07T11:54:44.597Z,99.99
2022-12-07T11:55:44.605Z,99.99
2022-12-07T11:56:44.568Z,99.99
2022-12-07T11:57:44.557Z,99.99
2022-12-07T11:58:44.549Z,99.99
2022-12-07T11:59:44.545Z,99.99
2022-12-07T12:00:44.557Z,99.99
2022-12-07T12:01:44.591Z,99.99
2022-12-07T12:02:44.574Z,99.99
2022-12-07T12:03:48.259Z,99.99
2022-12-07T12:04:45.491Z,99.99
2022-12-07T12:05:44.466Z,99.99
2022-12-07T12:06:44.503Z,99.99
2022-12-07T12:09:47.818Z,99.99
2022-12-07T12:10:45.446Z,99.99
2022-12-07T12:11:44.486Z,99.99
2022-12-07T12:14:46.785Z,99.99
2022-12-07T12:15:44.366Z,99.99
2022-12-07T12:16:44.400Z,99.99
2022-12-07T12:17:44.346Z,99.99
2022-12-07T12:18:44.327Z,99.99
2022-12-07T12:19:44.334Z,99.99
2022-12-07T12:20:44.317Z,99.99
2022-12-07T12:21:44.291Z,99.99
2022-12-07T12:22:44.297Z,99.99
2022-12-07T12:23:44.270Z,99.99
2022-12-07T12:24:44.278Z,99.99
2022-12-07T12:25:44.290Z,99.99
2022-12-07T12:26:44.248Z,99.99
2022-12-07T12:27:44.229Z,99.99
2022-12-07T12:28:50.068Z,99.99
2022-12-07T12:29:45.217Z,99.99
2022-12-07T12:30:44.185Z,99.99
2022-12-07T12:31:44.185Z,99.99
2022-12-07T12:32:44.176Z,99.99
2022-12-07T12:33:44.169Z,99.99
2022-12-07T12:34:50.006Z,99.99
2022-12-07T12:35:45.125Z,99.99
2022-12-07T12:36:44.249Z,99.99
2022-12-07T12:37:44.125Z,99.99
2022-12-07T12:38:44.105Z,99.99
2022-12-07T12:39:44.086Z,99.99
2022-12-07T12:40:48.676Z,99.90
2022-12-07T12:41:45.069Z,99.58
2022-12-07T12:42:44.058Z,99.69
2022-12-07T12:43:44.058Z,99.90
2022-12-07T12:44:44.044Z,99.48
2022-12-07T12:45:44.753Z,99.33
2022-12-07T12:46:49.445Z,99.13
2022-12-07T12:47:45.008Z,98.92
2022-12-07T12:48:44.005Z,98.82
2022-12-07T12:49:43.998Z,99.02
2022-12-07T12:50:43.959Z,98.82
2022-12-07T12:51:43.959Z,99.02
2022-12-07T12:52:48.795Z,99.33
2022-12-07T12:53:44.934Z,98.71
2022-12-07T12:54:43.938Z,98.61
2022-12-07T12:55:43.922Z,98.61
2022-12-07T12:56:43.936Z,98.19